EDT,Max TemperatureF,Mean TemperatureF,Min TemperatureF,Max Dew PointF,MeanDew PointF,Min DewpointF,Max Humidity, Mean Humidity, Min Humidity, Max Sea Level PressureIn, Mean Sea Level PressureIn, Min Sea Level PressureIn, Max VisibilityMiles, Mean VisibilityMiles, Min VisibilityMiles, Max Wind SpeedMPH, Mean Wind SpeedMPH, Max Gust SpeedMPH,PrecipitationIn, CloudCover, Events, WindDirDegrees
2011-9-1,89,80,72,74,71,68,94,76,50,30.12,30.08,30.05,10,9,1,16,4,24,0.00,2,,57
2011-9-2,88,78,68,69,65,61,93,68,41,30.07,30.02,29.98,10,10,9,13,3,16,0.00,0,,79
2011-9-3,90,79,69,71,68,65,90,72,49,30.00,29.95,29.92,10,10,10,13,3,20,0.00,1,,123
2011-9-4,91,78,69,75,71,66,90,75,59,29.94,29.90,29.86,10,10,10,14,4,20,0.00,2,,146
2011-9-5,97,87,78,76,72,69,87,65,43,29.89,29.80,29.75,10,10,10,17,9,30,0.00,1,Thunderstorm,188
2011-9-6,82,80,75,75,72,68,90,77,65,29.92,29.81,29.74,10,10,10,15,10,23,0.06,4,,226
2011-9-7,84,77,70,64,58,54,71,56,40,29.98,29.94,29.91,10,10,10,10,6,,0.00,5,,291
2011-9-8,88,77,66,61,59,57,76,57,36,29.96,29.92,29.87,10,10,7,16,8,21,0.00,2,,301
2011-9-9,87,75,64,69,61,57,87,65,40,29.99,29.95,29.91,10,10,9,12,2,17,0.00,5,,259
2011-9-10,90,80,72,71,67,60,91,69,39,30.03,29.98,29.95,10,10,9,9,4,,0.00,4,,21
2011-9-11,91,80,69,76,71,67,94,78,50,30.07,30.03,30.00,10,8,0,13,3,20,0.00,1,Fog,150
2011-9-12,93,80,69,76,65,54,90,63,28,30.09,30.03,29.99,10,9,4,10,4,,0.00,1,,27
2011-9-13,93,78,64,68,65,57,100,80,33,30.03,30.00,29.95,10,4,0,10,1,,0.00,1,Fog,41
2011-9-14,91,78,66,71,67,64,96,77,45,29.99,29.96,29.93,10,6,1,13,1,18,0.00,1,,96
2011-9-15,97,80,66,71,66,55,94,73,26,29.99,29.95,29.90,10,7,0,12,2,18,0.00,1,Fog,225
2011-9-16,93,80,71,75,72,68,96,84,52,30.15,30.07,29.98,10,6,0,14,5,22,3.18,5,Fog-Rain-Thunderstorm,75
2011-9-17,77,72,69,72,70,66,100,91,82,30.18,30.12,30.09,10,5,0,13,7,17,2.41,7,Fog-Rain-Thunderstorm,16
2011-9-18,80,76,71,71,69,66,87,79,69,30.18,30.13,30.10,10,10,8,17,10,25,0.00,8,,23
2011-9-19,84,78,73,76,73,69,94,81,70,30.10,30.04,29.99,10,9,2,15,9,21,0.12,7,Rain,49
2011-9-20,87,80,73,76,74,72,100,85,70,30.05,30.00,29.96,10,8,2,15,3,20,0.41,4,Rain-Thunderstorm,113
2011-9-21,88,80,72,77,74,71,100,86,61,30.07,30.03,29.99,10,8,0,10,3,,0.72,3,Fog-Rain-Thunderstorm,77
2011-9-22,86,80,73,78,75,73,97,88,67,30.08,30.03,30.00,10,10,6,9,2,,0.01,3,Rain,89
2011-9-23,89,80,73,76,74,71,100,84,65,30.03,29.97,29.90,10,9,2,10,2,,0.02,3,Rain,168
2011-9-24,88,79,71,76,73,70,96,84,67,29.96,29.92,29.88,10,9,2,12,2,,0.00,2,,97
2011-9-25,90,81,73,76,73,72,94,88,59,29.97,29.93,29.86,10,8,1,14,2,,0.63,3,Fog-Rain-Thunderstorm,76
2011-9-26,88,80,73,75,72,68,97,85,59,29.98,29.93,29.87,10,8,0,37,5,51,0.75,5,Fog-Rain-Thunderstorm,190
2011-9-27,88,80,71,75,72,69,97,81,61,29.96,29.92,29.88,10,10,2,8,3,,0.01,2,Fog-Thunderstorm,175
2011-9-28,90,80,73,74,73,69,93,78,53,29.93,29.89,29.84,10,10,10,7,3,,0.00,1,,173
2011-9-29,90,81,73,73,69,63,91,72,42,29.91,29.86,29.81,10,10,9,8,4,,0.00,0,,327
2011-9-30,89,79,70,71,65,59,93,68,37,29.86,29.81,29.74,10,9,4,10,3,,0.00,1,,326